createdAt,value
2018-06-14T00:00:58.873Z,85.18
2018-06-14T00:01:59.073Z,84.80
2018-06-14T00:02:59.284Z,84.80
2018-06-14T00:03:59.496Z,85.94
2018-06-14T00:04:59.686Z,85.47
2018-06-14T00:07:31.985Z,85.94
2018-06-14T00:08:32.158Z,85.28
2018-06-14T00:09:32.353Z,86.33
2018-06-14T00:10:32.567Z,86.14
2018-06-14T00:11:32.764Z,86.04
2018-06-14T00:12:32.955Z,86.52
2018-06-14T00:13:33.147Z,86.04
2018-06-14T00:14:33.353Z,85.57
2018-06-14T00:15:33.575Z,85.18
2018-06-14T00:16:33.766Z,85.28
2018-06-14T00:17:33.951Z,85.18
2018-06-14T00:18:34.160Z,84.52
2018-06-14T00:19:34.352Z,85.09
2018-06-14T00:20:34.565Z,84.99
2018-06-14T00:21:34.772Z,84.99
2018-06-14T00:22:35.038Z,84.99
2018-06-14T00:23:35.100Z,85.18
2018-06-14T00:24:35.284Z,84.89
2018-06-14T00:25:35.491Z,84.99
2018-06-14T00:26:35.677Z,84.99
2018-06-14T00:27:35.883Z,85.09
2018-06-14T00:28:36.087Z,85.38
2018-06-14T00:29:36.289Z,85.28
2018-06-14T00:30:36.497Z,84.80
2018-06-14T00:31:36.710Z,84.89
2018-06-14T00:32:36.925Z,84.89
2018-06-14T00:33:37.240Z,84.89
2018-06-14T00:34:37.326Z,84.70
2018-06-14T00:35:37.518Z,84.32
2018-06-14T00:36:37.702Z,84.23
2018-06-14T00:37:37.905Z,84.23
2018-06-14T00:38:38.103Z,83.84
2018-06-14T00:39:38.292Z,84.13
2018-06-14T00:40:38.494Z,83.65
2018-06-14T00:41:38.704Z,83.56
2018-06-14T00:42:38.889Z,84.42
2018-06-14T00:43:39.100Z,84.28
2018-06-14T00:44:39.314Z,84.61
2018-06-14T00:45:39.523Z,84.80
2018-06-14T00:46:39.735Z,85.66
2018-06-14T00:47:39.954Z,85.90
2018-06-14T00:48:40.145Z,85.90
2018-06-14T00:49:40.342Z,85.81
2018-06-14T00:50:40.535Z,85.81
2018-06-14T00:51:40.748Z,86.47
2018-06-14T00:52:40.949Z,85.75
2018-06-14T00:53:41.133Z,86.19
2018-06-14T00:54:41.331Z,85.94
2018-06-14T00:55:41.519Z,85.85
2018-06-14T00:56:41.727Z,86.00
2018-06-14T00:57:41.933Z,85.90
2018-06-14T00:58:42.142Z,85.47
2018-06-14T00:59:42.325Z,85.81
2018-06-14T01:00:42.513Z,85.90
2018-06-14T01:01:42.721Z,86.29
2018-06-14T01:02:42.935Z,86.57
2018-06-14T01:03:43.134Z,86.52
2018-06-14T01:04:43.348Z,86.19
2018-06-14T01:05:43.550Z,86.29
2018-06-14T01:06:43.739Z,86.67
2018-06-14T01:07:43.949Z,87.34
2018-06-14T01:08:44.152Z,87.43
2018-06-14T01:09:44.367Z,87.15
2018-06-14T01:10:44.570Z,87.15
2018-06-14T01:11:44.779Z,87.29
2018-06-14T01:12:44.970Z,87.38
2018-06-14T01:13:45.164Z,87.38
2018-06-14T01:14:45.374Z,87.34
2018-06-14T01:15:45.571Z,87.48
2018-06-14T01:16:45.769Z,87.15
2018-06-14T01:17:45.979Z,87.34
2018-06-14T01:18:46.171Z,87.53
2018-06-14T01:19:46.379Z,87.62
2018-06-14T01:20:46.591Z,88.10
2018-06-14T01:21:46.777Z,87.82
2018-06-14T01:22:46.965Z,87.82
2018-06-14T01:23:47.174Z,87.91
2018-06-14T01:24:47.358Z,87.62
2018-06-14T01:25:47.567Z,87.34
2018-06-14T01:26:47.774Z,87.72
2018-06-14T01:27:47.965Z,87.72
2018-06-14T01:28:48.184Z,87.91
2018-06-14T01:29:48.393Z,87.62
2018-06-14T01:30:48.600Z,87.72
2018-06-14T01:31:48.786Z,87.62
2018-06-14T01:32:48.989Z,87.62
2018-06-14T01:33:49.209Z,87.43
2018-06-14T01:34:49.416Z,87.19
2018-06-14T01:35:49.618Z,87.72
2018-06-14T01:36:49.804Z,87.91
2018-06-14T01:37:49.984Z,87.72
2018-06-14T01:38:50.186Z,87.72
2018-06-14T01:39:50.394Z,87.82
2018-06-14T01:40:50.595Z,88.10
2018-06-14T01:41:50.799Z,88.29
2018-06-14T01:42:50.993Z,88.15
2018-06-14T01:43:51.204Z,88.68
2018-06-14T01:44:51.387Z,88.48
2018-06-14T01:45:51.573Z,89.25
2018-06-14T01:46:51.764Z,89.25
2018-06-14T01:47:51.978Z,88.77
2018-06-14T01:48:52.160Z,89.25
2018-06-14T01:49:52.349Z,89.34
2018-06-14T01:50:52.534Z,88.87
2018-06-14T01:51:52.731Z,88.39
2018-06-14T01:52:52.938Z,88.77
2018-06-14T01:53:53.123Z,89.15
2018-06-14T01:54:53.338Z,88.87
2018-06-14T01:55:53.541Z,88.87
2018-06-14T01:56:53.731Z,89.15
2018-06-14T01:57:53.937Z,89.44
2018-06-14T01:58:54.146Z,89.15
2018-06-14T01:59:54.334Z,89.15
2018-06-14T02:00:54.525Z,89.25
2018-06-14T02:03:26.650Z,89.25
2018-06-14T02:04:26.823Z,89.25
2018-06-14T02:05:27.005Z,89.25
2018-06-14T02:06:27.338Z,88.96
2018-06-14T02:07:27.419Z,89.06
2018-06-14T02:08:27.604Z,89.53
2018-06-14T02:09:27.787Z,89.82
2018-06-14T02:10:27.972Z,90.01
2018-06-14T02:11:28.156Z,89.73
2018-06-14T02:12:28.352Z,89.63
2018-06-14T02:13:28.556Z,89.63
2018-06-14T02:14:28.754Z,89.63
2018-06-14T02:15:28.950Z,89.59
2018-06-14T02:18:01.220Z,90.25
2018-06-14T02:19:01.398Z,90.25
2018-06-14T02:20:01.615Z,90.45
2018-06-14T02:21:01.805Z,90.64
2018-06-14T02:22:02.009Z,90.54
2018-06-14T02:23:02.195Z,90.54
2018-06-14T02:24:02.385Z,90.54
2018-06-14T02:25:02.612Z,90.83
2018-06-14T02:26:02.824Z,90.25
2018-06-14T02:27:03.035Z,90.16
2018-06-14T02:28:03.243Z,89.97
2018-06-14T02:29:03.431Z,90.16
2018-06-14T02:30:03.637Z,90.25
2018-06-14T02:32:35.718Z,89.78
2018-06-14T02:33:35.890Z,89.97
2018-06-14T02:36:08.154Z,90.35
2018-06-14T02:37:08.323Z,90.35
2018-06-14T02:38:08.533Z,90.25
2018-06-14T02:39:08.736Z,90.35
2018-06-14T02:40:08.942Z,90.35
2018-06-14T02:41:09.144Z,90.35
2018-06-14T02:42:09.349Z,89.97
2018-06-14T02:43:09.543Z,90.25
2018-06-14T02:44:09.727Z,89.97
2018-06-14T02:45:09.913Z,90.16
2018-06-14T02:46:10.118Z,90.35
2018-06-14T02:47:10.308Z,90.06
2018-06-14T02:48:10.495Z,90.78
2018-06-14T02:49:10.685Z,90.21
2018-06-14T02:50:10.909Z,90.78
2018-06-14T02:51:11.095Z,90.59
2018-06-14T02:52:11.299Z,90.59
2018-06-14T02:53:11.504Z,91.16
2018-06-14T02:54:11.714Z,91.16
2018-06-14T02:55:11.903Z,91.74
2018-06-14T02:56:12.107Z,91.74
2018-06-14T02:57:12.319Z,91.74
2018-06-14T02:58:12.525Z,92.79
2018-06-14T02:59:12.708Z,92.55
2018-06-14T03:00:12.908Z,93.02
2018-06-14T03:01:13.095Z,92.74
2018-06-14T03:02:13.296Z,92.83
2018-06-14T03:03:13.492Z,92.93
2018-06-14T03:04:13.708Z,93.22
2018-06-14T03:05:13.887Z,93.41
2018-06-14T03:06:14.095Z,93.41
2018-06-14T03:07:14.299Z,93.41
2018-06-14T03:08:14.500Z,93.88
2018-06-14T03:09:14.711Z,94.74
2018-06-14T03:10:14.912Z,94.51
2018-06-14T03:11:15.129Z,94.56
2018-06-14T03:12:15.372Z,94.32
2018-06-14T03:13:15.585Z,95.32
2018-06-14T03:14:15.776Z,95.08
2018-06-14T03:15:15.966Z,95.17
2018-06-14T03:16:16.164Z,95.46
2018-06-14T03:17:16.372Z,95.70
2018-06-14T03:18:16.589Z,95.65
2018-06-14T03:19:16.788Z,95.75
2018-06-14T03:20:16.975Z,95.56
2018-06-14T03:21:17.189Z,96.41
2018-06-14T03:22:17.371Z,96.13
2018-06-14T03:23:17.558Z,96.37
2018-06-14T03:24:17.755Z,96.22
2018-06-14T03:25:17.941Z,96.08
2018-06-14T03:26:18.144Z,96.17
2018-06-14T03:27:18.332Z,96.08
2018-06-14T03:28:18.534Z,96.17
2018-06-14T03:29:18.721Z,96.46
2018-06-14T03:30:18.985Z,95.98
2018-06-14T03:31:19.061Z,95.70
2018-06-14T03:32:19.263Z,95.61
2018-06-14T03:33:19.455Z,95.61
2018-06-14T03:34:19.672Z,95.61
2018-06-14T03:36:51.781Z,96.41
2018-06-14T03:37:51.952Z,96.37
2018-06-14T03:38:52.153Z,96.66
2018-06-14T03:39:52.371Z,96.27
2018-06-14T03:40:52.616Z,95.98
2018-06-14T03:41:52.754Z,96.75
2018-06-14T03:42:52.945Z,96.17
2018-06-14T03:43:53.161Z,95.98
2018-06-14T03:44:53.337Z,95.51
2018-06-14T03:45:53.526Z,95.41
2018-06-14T03:46:53.714Z,95.12
2018-06-14T03:47:53.904Z,94.93
2018-06-14T03:48:54.118Z,93.88
2018-06-14T03:49:54.324Z,94.22
2018-06-14T03:50:54.536Z,94.41
2018-06-14T03:51:54.772Z,94.12
2018-06-14T03:52:54.923Z,94.70
2018-06-14T03:53:55.125Z,94.22
2018-06-14T03:54:55.328Z,93.55
2018-06-14T03:55:55.525Z,93.84
2018-06-14T03:56:55.703Z,93.93
2018-06-14T03:57:55.910Z,93.84
2018-06-14T03:58:56.097Z,93.55
2018-06-14T03:59:56.304Z,93.55
2018-06-14T04:00:56.515Z,93.55
2018-06-14T04:01:56.712Z,93.36
2018-06-14T04:02:56.924Z,93.17
2018-06-14T04:03:57.129Z,93.74
2018-06-14T04:04:57.410Z,93.46
2018-06-14T04:05:57.493Z,93.46
2018-06-14T04:06:57.704Z,93.93
2018-06-14T04:07:57.903Z,93.55
2018-06-14T04:08:58.113Z,93.65
2018-06-14T04:09:58.292Z,92.79
2018-06-14T04:10:58.474Z,92.02
2018-06-14T04:11:58.663Z,92.55
2018-06-14T04:12:58.875Z,92.41
2018-06-14T04:13:59.067Z,92.97
2018-06-14T04:14:59.260Z,92.60
2018-06-14T04:15:59.454Z,92.97
2018-06-14T04:18:32.390Z,92.50
2018-06-14T04:19:31.882Z,92.50
2018-06-14T04:20:32.135Z,92.74
2018-06-14T04:21:32.288Z,92.16
2018-06-14T04:22:32.493Z,91.40
2018-06-14T04:23:32.695Z,90.64
2018-06-14T04:24:32.879Z,90.20
2018-06-14T04:25:33.088Z,90.49
2018-06-14T04:26:33.308Z,90.20
2018-06-14T04:27:33.544Z,89.39
2018-06-14T04:28:33.697Z,88.91
2018-06-14T04:29:33.881Z,89.29
2018-06-14T04:30:34.075Z,88.72
2018-06-14T04:31:34.281Z,87.90
2018-06-14T04:32:34.464Z,86.41
2018-06-14T04:33:34.671Z,84.69
2018-06-14T04:34:34.877Z,82.42
2018-06-14T04:35:35.085Z,80.07
2018-06-14T04:36:35.430Z,77.33
2018-06-14T04:37:35.500Z,75.15
2018-06-14T04:38:35.708Z,73.08
2018-06-14T04:39:35.916Z,71.93
2018-06-14T04:40:36.116Z,71.45
2018-06-14T04:41:36.311Z,70.62
2018-06-14T04:42:36.522Z,70.90
2018-06-14T04:43:36.731Z,70.30
2018-06-14T04:44:36.944Z,68.70
2018-06-14T04:45:37.148Z,67.93
2018-06-14T04:46:37.360Z,68.44
2018-06-14T04:49:09.526Z,71.12
2018-06-14T04:50:09.704Z,70.33
2018-06-14T04:51:09.890Z,69.40
2018-06-14T04:53:41.989Z,66.94
2018-06-14T04:54:42.165Z,66.91
2018-06-14T04:55:42.375Z,66.84
2018-06-14T04:56:42.588Z,68.83
2018-06-14T04:57:42.785Z,69.85
2018-06-14T04:58:43.002Z,70.46
2018-06-14T04:59:43.198Z,70.56
2018-06-14T05:00:43.410Z,69.60
2018-06-14T05:01:43.610Z,69.50
2018-06-14T05:02:43.817Z,69.50
2018-06-14T05:03:44.034Z,69.89
2018-06-14T05:04:44.233Z,70.27
2018-06-14T05:05:44.425Z,69.15
2018-06-14T05:06:44.641Z,69.24
2018-06-14T05:07:44.858Z,67.58
2018-06-14T05:08:45.092Z,65.53
2018-06-14T05:09:45.287Z,63.15
2018-06-14T05:10:45.499Z,63.63
2018-06-14T05:11:45.717Z,62.41
2018-06-14T05:12:45.904Z,62.54
2018-06-14T05:13:46.124Z,64.34
2018-06-14T05:14:46.278Z,65.75
2018-06-14T05:15:46.487Z,66.88
2018-06-14T05:16:46.678Z,69.34
2018-06-14T05:17:46.916Z,68.63
2018-06-14T05:18:47.130Z,69.98
2018-06-14T05:19:47.348Z,68.22
2018-06-14T05:20:47.537Z,65.88
2018-06-14T05:21:47.733Z,64.79
2018-06-14T05:22:47.943Z,63.85
2018-06-14T05:23:48.164Z,62.66
2018-06-14T05:24:48.360Z,61.93
2018-06-14T05:25:48.556Z,60.35
2018-06-14T05:26:48.775Z,60.48
2018-06-14T05:27:48.986Z,62.22
2018-06-14T05:28:49.190Z,62.12
2018-06-14T05:29:49.408Z,61.57
2018-06-14T05:30:49.601Z,61.57
2018-06-14T05:31:49.816Z,61.16
2018-06-14T05:32:50.032Z,61.99
2018-06-14T05:33:50.240Z,63.89
2018-06-14T05:34:50.457Z,62.41
2018-06-14T05:35:50.655Z,61.38
2018-06-14T05:36:50.848Z,60.25
2018-06-14T05:37:51.063Z,60.51
2018-06-14T05:38:51.263Z,59.67
2018-06-14T05:39:51.480Z,59.77
2018-06-14T05:40:51.674Z,60.22
2018-06-14T05:41:51.892Z,60.77
2018-06-14T05:42:52.082Z,62.76
2018-06-14T05:43:52.281Z,62.66
2018-06-14T05:44:52.503Z,63.21
2018-06-14T05:45:52.703Z,62.76
2018-06-14T05:46:52.898Z,61.44
2018-06-14T05:47:53.259Z,61.35
2018-06-14T05:48:53.300Z,61.74
2018-06-14T05:49:53.492Z,61.51
2018-06-14T05:50:53.706Z,63.15
2018-06-14T05:51:53.898Z,63.06
2018-06-14T05:52:54.109Z,62.89
2018-06-14T05:53:54.320Z,62.51
2018-06-14T05:54:54.514Z,62.89
2018-06-14T05:55:54.702Z,62.51
2018-06-14T05:56:54.893Z,62.51
2018-06-14T05:57:55.098Z,61.38
2018-06-14T05:58:55.291Z,61.54
2018-06-14T05:59:55.503Z,60.86
2018-06-14T06:00:55.705Z,61.96
2018-06-14T06:01:55.920Z,63.34
2018-06-14T06:02:56.118Z,62.60
2018-06-14T06:03:56.327Z,62.02
2018-06-14T06:04:56.520Z,62.02
2018-06-14T06:05:56.753Z,59.55
2018-06-14T06:06:56.946Z,59.09
2018-06-14T06:07:57.172Z,58.93
2018-06-14T06:08:57.406Z,56.47
2018-06-14T06:09:57.604Z,54.63
2018-06-14T06:10:57.863Z,54.05
2018-06-14T06:11:58.098Z,55.67
2018-06-14T06:12:58.276Z,56.96
2018-06-14T06:13:58.483Z,57.81
2018-06-14T06:14:58.675Z,58.03
2018-06-14T06:15:58.867Z,56.39
2018-06-14T06:16:59.056Z,56.03
2018-06-14T06:17:59.276Z,55.83
2018-06-14T06:18:59.492Z,55.11
2018-06-14T06:19:59.687Z,53.33
2018-06-14T06:20:59.918Z,53.02
2018-06-14T06:22:00.124Z,54.83
2018-06-14T06:23:00.317Z,55.05
2018-06-14T06:24:00.545Z,53.59
2018-06-14T06:25:00.782Z,54.53
2018-06-14T06:26:01.011Z,54.22
2018-06-14T06:27:01.208Z,53.59
2018-06-14T06:28:01.424Z,54.53
2018-06-14T06:29:01.646Z,54.73
2018-06-14T06:30:01.841Z,53.47
2018-06-14T06:31:02.062Z,53.55
2018-06-14T06:32:02.283Z,54.58
2018-06-14T06:33:02.506Z,53.59
2018-06-14T06:34:02.709Z,52.12
2018-06-14T06:35:02.916Z,52.97
2018-06-14T06:36:03.145Z,53.39
2018-06-14T06:37:03.339Z,55.10
2018-06-14T06:38:03.559Z,54.87
2018-06-14T06:39:03.744Z,53.67
2018-06-14T06:41:35.856Z,52.80
2018-06-14T06:42:36.038Z,53.06
2018-06-14T06:43:36.245Z,53.93
2018-06-14T06:44:36.440Z,52.99
2018-06-14T06:45:36.632Z,52.80
2018-06-14T06:46:36.846Z,52.89
2018-06-14T06:47:37.063Z,51.06
2018-06-14T06:48:37.286Z,51.15
2018-06-14T06:49:37.487Z,51.06
2018-06-14T06:50:37.702Z,50.24
2018-06-14T06:51:37.915Z,49.19
2018-06-14T06:52:38.117Z,49.12
2018-06-14T06:53:38.311Z,48.25
2018-06-14T06:54:38.538Z,49.12
2018-06-14T06:55:38.737Z,49.97
2018-06-14T06:56:38.961Z,48.90
2018-06-14T06:57:39.157Z,49.65
2018-06-14T06:58:39.393Z,49.95
2018-06-14T06:59:39.585Z,48.81
2018-06-14T07:00:39.794Z,48.88
2018-06-14T07:01:40.025Z,49.92
2018-06-14T07:02:40.228Z,49.75
2018-06-14T07:03:40.435Z,49.68
2018-06-14T07:04:40.635Z,49.99
2018-06-14T07:05:40.828Z,49.51
2018-06-14T07:06:41.044Z,49.05
2018-06-14T07:07:41.267Z,48.37
2018-06-14T07:08:41.527Z,48.11
2018-06-14T07:09:41.618Z,47.09
2018-06-14T07:10:41.836Z,44.88
2018-06-14T07:11:42.034Z,45.62
2018-06-14T07:12:42.257Z,42.52
2018-06-14T07:13:42.457Z,43.57
2018-06-14T07:14:42.666Z,44.15
2018-06-14T07:15:42.886Z,44.61
2018-06-14T07:16:43.099Z,46.45
2018-06-14T07:17:43.316Z,44.68
2018-06-14T07:18:43.522Z,42.94
2018-06-14T07:19:43.740Z,43.87
2018-06-14T07:20:43.960Z,42.90
2018-06-14T07:21:44.218Z,42.24
2018-06-14T07:22:44.362Z,41.08
2018-06-14T07:23:44.583Z,40.91
2018-06-14T07:24:44.780Z,41.49
2018-06-14T07:25:44.989Z,42.94
2018-06-14T07:26:45.204Z,42.54
2018-06-14T07:27:45.503Z,44.09
2018-06-14T07:28:45.547Z,44.98
2018-06-14T07:29:45.756Z,43.41
2018-06-14T07:30:45.955Z,44.27
2018-06-14T07:31:46.175Z,43.99
2018-06-14T07:32:46.366Z,43.72
2018-06-14T07:35:18.539Z,44.26
2018-06-14T07:36:18.721Z,44.54
2018-06-14T07:37:18.946Z,42.34
2018-06-14T07:38:19.150Z,41.88
2018-06-14T07:39:19.341Z,42.05
2018-06-14T07:40:19.551Z,43.04
2018-06-14T07:41:19.764Z,42.44
2018-06-14T07:42:19.967Z,42.63
2018-06-14T07:43:20.166Z,42.51
2018-06-14T07:44:20.367Z,41.66
2018-06-14T07:45:20.587Z,42.37
2018-06-14T07:46:20.789Z,44.09
2018-06-14T07:47:20.997Z,45.45
2018-06-14T07:48:21.216Z,43.90
2018-06-14T07:49:21.434Z,44.89
2018-06-14T07:50:21.646Z,46.32
2018-06-14T07:51:21.867Z,48.23
2018-06-14T07:52:22.108Z,49.17
2018-06-14T07:53:22.315Z,51.10
2018-06-14T07:54:22.528Z,50.95
2018-06-14T07:55:22.755Z,53.81
2018-06-14T07:56:23.115Z,53.50
2018-06-14T07:57:23.184Z,53.59
2018-06-14T07:58:23.406Z,53.98
2018-06-14T07:59:23.612Z,55.11
2018-06-14T08:00:23.822Z,54.03
2018-06-14T08:01:24.047Z,53.77
2018-06-14T08:02:24.249Z,52.73
2018-06-14T08:03:24.456Z,51.00
2018-06-14T08:04:24.654Z,49.82
2018-06-14T08:05:24.870Z,49.02
2018-06-14T08:06:25.106Z,49.60
2018-06-14T08:07:25.273Z,49.82
2018-06-14T08:08:25.491Z,51.14
2018-06-14T08:09:25.702Z,51.50
2018-06-14T08:10:25.920Z,51.86
2018-06-14T08:11:26.125Z,53.50
2018-06-14T08:12:26.352Z,55.07
2018-06-14T08:13:26.528Z,55.45
2018-06-14T08:14:26.735Z,54.30
2018-06-14T08:15:26.945Z,52.23
2018-06-14T08:16:27.137Z,51.61
2018-06-14T08:17:27.329Z,51.37
2018-06-14T08:18:27.533Z,50.28
2018-06-14T08:19:27.740Z,48.88
2018-06-14T08:20:27.961Z,45.49
2018-06-14T08:21:28.180Z,45.61
2018-06-14T08:22:28.429Z,43.96
2018-06-14T08:23:28.649Z,42.36
2018-06-14T08:24:28.877Z,42.38
2018-06-14T08:25:29.083Z,44.42
2018-06-14T08:26:29.285Z,42.40
2018-06-14T08:27:29.499Z,40.44
2018-06-14T08:28:29.720Z,39.34
2018-06-14T08:29:29.925Z,39.59
2018-06-14T08:30:30.145Z,40.46
2018-06-14T08:31:30.359Z,40.48
2018-06-14T08:32:30.579Z,41.00
2018-06-14T08:33:30.777Z,39.49
2018-06-14T08:34:30.998Z,38.54
2018-06-14T08:35:31.203Z,38.56
2018-06-14T08:36:31.424Z,37.76
2018-06-14T08:37:31.619Z,40.29
2018-06-14T08:38:31.835Z,40.33
2018-06-14T08:39:32.060Z,40.13
2018-06-14T08:40:32.252Z,41.08
2018-06-14T08:41:32.453Z,41.88
2018-06-14T08:42:32.659Z,40.66
2018-06-14T08:43:32.856Z,38.95
2018-06-14T08:44:33.041Z,38.12
2018-06-14T08:45:33.247Z,39.95
2018-06-14T08:46:33.454Z,39.57
2018-06-14T08:47:33.675Z,39.37
2018-06-14T08:50:05.789Z,38.32
2018-06-14T08:51:05.973Z,38.21
2018-06-14T08:52:06.176Z,39.39
2018-06-14T08:53:06.386Z,39.78
2018-06-14T08:54:06.607Z,42.25
2018-06-14T08:55:06.822Z,44.12
2018-06-14T08:56:07.027Z,45.84
2018-06-14T08:57:07.228Z,46.86
2018-06-14T08:58:07.420Z,49.00
2018-06-14T08:59:07.612Z,48.61
2018-06-14T09:00:07.832Z,47.60
2018-06-14T09:01:08.049Z,45.65
2018-06-14T09:02:08.240Z,46.85
2018-06-14T09:03:08.433Z,42.96
2018-06-14T09:04:08.624Z,42.32
2018-06-14T09:05:08.840Z,40.58
2018-06-14T09:06:09.101Z,41.10
2018-06-14T09:07:09.297Z,42.30
2018-06-14T09:09:41.426Z,44.05
2018-06-14T09:10:41.603Z,45.28
2018-06-14T09:11:41.836Z,45.48
2018-06-14T09:12:42.051Z,46.90
2018-06-14T09:13:42.268Z,47.27
2018-06-14T09:14:42.487Z,47.36
2018-06-14T09:15:42.672Z,47.82
2018-06-14T09:16:42.878Z,47.94
2018-06-14T09:17:43.096Z,48.64
2018-06-14T09:18:43.304Z,47.85
2018-06-14T09:19:43.519Z,48.23
2018-06-14T09:20:43.733Z,48.28
2018-06-14T09:21:43.929Z,45.64
2018-06-14T09:22:44.127Z,45.33
2018-06-14T09:23:44.335Z,46.30
2018-06-14T09:24:44.538Z,45.50
2018-06-14T09:25:44.751Z,45.76
2018-06-14T09:26:44.960Z,47.07
2018-06-14T09:27:45.166Z,47.92
2018-06-14T09:28:45.366Z,47.34
2018-06-14T09:29:45.568Z,47.05
2018-06-14T09:30:45.762Z,47.14
2018-06-14T09:31:45.954Z,47.34
2018-06-14T09:32:46.167Z,49.07
2018-06-14T09:33:46.385Z,48.57
2018-06-14T09:34:46.593Z,48.95
2018-06-14T09:35:46.833Z,49.60
2018-06-14T09:36:47.031Z,49.63
2018-06-14T09:39:18.866Z,50.52
2018-06-14T09:40:19.041Z,49.39
2018-06-14T09:41:19.254Z,49.68
2018-06-14T09:43:51.395Z,49.82
2018-06-14T09:44:51.568Z,50.98
2018-06-14T09:45:51.762Z,51.07
2018-06-14T09:46:51.950Z,49.65
2018-06-14T09:47:52.166Z,48.59
2018-06-14T09:48:52.380Z,49.07
2018-06-14T09:49:52.595Z,49.65
2018-06-14T09:52:24.712Z,49.94
2018-06-14T09:53:24.893Z,50.88
2018-06-14T09:54:25.105Z,51.10
2018-06-14T09:55:25.322Z,51.26
2018-06-14T09:56:25.541Z,51.58
2018-06-14T09:57:25.758Z,51.41
2018-06-14T09:58:25.947Z,50.54
2018-06-14T09:59:26.150Z,48.97
2018-06-14T10:00:26.433Z,47.02
2018-06-14T10:01:26.577Z,45.25
2018-06-14T10:02:26.784Z,45.49
2018-06-14T10:03:26.985Z,45.42
2018-06-14T10:04:27.174Z,41.47
2018-06-14T10:05:27.387Z,40.89
2018-06-14T10:06:27.584Z,40.36
2018-06-14T10:07:27.803Z,40.83
2018-06-14T10:08:28.018Z,42.62
2018-06-14T10:09:28.218Z,42.45
2018-06-14T10:10:28.430Z,42.83
2018-06-14T10:11:28.652Z,43.57
2018-06-14T10:12:28.831Z,46.06
2018-06-14T10:13:29.022Z,47.38
2018-06-14T10:14:29.231Z,47.67
2018-06-14T10:15:29.442Z,49.19
2018-06-14T10:16:29.635Z,49.87
2018-06-14T10:17:29.843Z,50.93
2018-06-14T10:20:02.184Z,49.41
2018-06-14T10:21:02.322Z,49.12
2018-06-14T10:22:02.548Z,48.93
2018-06-14T10:23:02.739Z,48.64
2018-06-14T10:24:02.946Z,49.51
2018-06-14T10:25:03.145Z,48.61
2018-06-14T10:26:03.339Z,49.19
2018-06-14T10:27:03.535Z,49.58
2018-06-14T10:28:03.726Z,50.18
2018-06-14T10:29:03.938Z,49.22
2018-06-14T10:30:04.144Z,48.71
2018-06-14T10:31:04.357Z,49.00
2018-06-14T10:32:04.552Z,47.75
2018-06-14T10:33:04.774Z,47.36
2018-06-14T10:34:04.989Z,48.33
2018-06-14T10:35:05.215Z,48.13
2018-06-14T10:36:05.395Z,47.87
2018-06-14T10:37:05.614Z,45.75
2018-06-14T10:38:05.815Z,45.72
2018-06-14T10:39:06.023Z,46.30
2018-06-14T10:40:06.245Z,46.97
2018-06-14T10:41:06.467Z,47.17
2018-06-14T10:42:06.664Z,47.19
2018-06-14T10:43:06.864Z,46.88
2018-06-14T10:45:38.980Z,47.85
2018-06-14T10:46:39.159Z,48.49
2018-06-14T10:47:39.357Z,49.29
2018-06-14T10:48:39.550Z,48.74
2018-06-14T10:49:39.752Z,48.16
2018-06-14T10:50:39.966Z,47.41
2018-06-14T10:51:40.178Z,47.22
2018-06-14T10:52:40.371Z,47.99
2018-06-14T10:53:40.578Z,48.59
2018-06-14T10:54:40.797Z,47.63
2018-06-14T10:55:41.018Z,47.89
2018-06-14T10:56:41.211Z,48.57
2018-06-14T10:57:41.425Z,48.93
2018-06-14T10:58:41.648Z,49.44
2018-06-14T10:59:41.844Z,49.73
2018-06-14T11:00:42.058Z,48.79
2018-06-14T11:01:42.254Z,47.26
2018-06-14T11:02:42.455Z,47.12
2018-06-14T11:03:42.666Z,48.01
2018-06-14T11:04:42.884Z,48.39
2018-06-14T11:07:14.997Z,43.84
2018-06-14T11:08:15.175Z,43.93
2018-06-14T11:09:15.375Z,44.49
2018-06-14T11:10:15.577Z,45.65
2018-06-14T11:11:15.784Z,45.84
2018-06-14T11:12:16.019Z,47.17
2018-06-14T11:13:16.232Z,48.06
2018-06-14T11:14:16.409Z,48.28
2018-06-14T11:15:16.664Z,47.07
2018-06-14T11:16:16.804Z,44.77
2018-06-14T11:17:17.000Z,45.83
2018-06-14T11:18:17.216Z,46.80
2018-06-14T11:19:17.420Z,47.28
2018-06-14T11:20:17.689Z,45.28
2018-06-14T11:21:17.839Z,45.45
2018-06-14T11:22:18.054Z,45.35
2018-06-14T11:23:18.270Z,45.62
2018-06-14T11:24:18.467Z,45.72
2018-06-14T11:25:18.677Z,46.49
2018-06-14T11:26:18.875Z,47.43
2018-06-14T11:27:19.091Z,47.70
2018-06-14T11:28:19.306Z,48.57
2018-06-14T11:29:19.502Z,49.65
2018-06-14T11:30:19.697Z,47.63
2018-06-14T11:31:19.913Z,47.81
2018-06-14T11:32:20.112Z,47.05
2018-06-14T11:33:20.309Z,47.70
2018-06-14T11:34:20.524Z,49.02
2018-06-14T11:35:20.716Z,49.22
2018-06-14T11:36:20.928Z,48.66
2018-06-14T11:37:21.142Z,47.22
2018-06-14T11:38:21.330Z,46.15
2018-06-14T11:39:21.525Z,46.34
2018-06-14T11:40:21.728Z,47.14
2018-06-14T11:41:21.928Z,46.83
2018-06-14T11:42:22.126Z,46.25
2018-06-14T11:43:22.330Z,46.56
2018-06-14T11:44:22.531Z,46.15
2018-06-14T11:45:22.720Z,45.86
2018-06-14T11:46:22.988Z,47.24
2018-06-14T11:48:55.154Z,45.50
2018-06-14T11:49:55.336Z,46.27
2018-06-14T11:50:55.531Z,46.10
2018-06-14T11:51:55.740Z,47.14
2018-06-14T11:52:55.944Z,47.14
2018-06-14T11:53:56.174Z,48.11
2018-06-14T11:54:56.387Z,48.69
2018-06-14T11:55:56.597Z,48.11
2018-06-14T11:56:56.798Z,47.84
2018-06-14T11:57:57.013Z,47.74
2018-06-14T11:58:57.225Z,47.14
2018-06-14T12:01:29.389Z,47.67
2018-06-14T12:02:29.569Z,47.00
2018-06-14T12:03:29.773Z,47.19
2018-06-14T12:04:29.968Z,47.58
2018-06-14T12:05:30.182Z,47.38
2018-06-14T12:06:30.396Z,47.19
2018-06-14T12:07:30.612Z,46.90
2018-06-14T12:08:30.828Z,46.22
2018-06-14T12:09:31.023Z,46.12
2018-06-14T12:10:31.268Z,46.42
2018-06-14T12:11:31.456Z,45.83
2018-06-14T12:12:31.665Z,45.83
2018-06-14T12:13:31.853Z,46.12
2018-06-14T12:14:32.067Z,46.10
2018-06-14T12:15:32.276Z,46.83
2018-06-14T12:16:32.498Z,47.22
2018-06-14T12:17:32.725Z,47.12
2018-06-14T12:18:32.931Z,46.81
2018-06-14T12:19:33.143Z,47.67
2018-06-14T12:20:33.352Z,47.89
2018-06-14T12:21:33.631Z,47.12
2018-06-14T12:22:33.722Z,47.99
2018-06-14T12:23:33.918Z,47.43
2018-06-14T12:24:34.128Z,47.63
2018-06-14T12:25:34.329Z,47.16
2018-06-14T12:26:34.525Z,46.17
2018-06-14T12:27:34.716Z,47.28
2018-06-14T12:28:34.930Z,47.67
2018-06-14T12:29:35.159Z,46.03
2018-06-14T12:32:07.281Z,46.32
2018-06-14T12:33:07.476Z,45.37
2018-06-14T12:34:07.665Z,45.45
2018-06-14T12:35:07.881Z,45.93
2018-06-14T12:36:08.092Z,45.91
2018-06-14T12:37:08.291Z,47.31
2018-06-14T12:38:08.500Z,48.76
2018-06-14T12:39:08.727Z,49.44
2018-06-14T12:40:08.920Z,49.80
2018-06-14T12:41:09.129Z,49.19
2018-06-14T12:42:09.341Z,49.77
2018-06-14T12:43:09.540Z,50.16
2018-06-14T12:44:09.757Z,50.62
2018-06-14T12:45:09.961Z,50.93
2018-06-14T12:46:10.163Z,49.87
2018-06-14T12:47:10.377Z,50.67
2018-06-14T12:48:10.576Z,49.70
2018-06-14T12:49:10.802Z,48.95
2018-06-14T12:50:11.094Z,48.95
2018-06-14T12:51:11.176Z,47.22
2018-06-14T12:52:11.389Z,47.14
2018-06-14T12:53:11.590Z,47.14
2018-06-14T12:54:11.793Z,46.92
2018-06-14T12:55:11.989Z,47.60
2018-06-14T12:56:12.188Z,48.16
2018-06-14T12:57:12.379Z,48.16
2018-06-14T12:58:12.582Z,48.93
2018-06-14T12:59:12.792Z,48.61
2018-06-14T13:01:44.924Z,49.02
2018-06-14T13:02:45.107Z,49.02
2018-06-14T13:03:45.302Z,49.41
2018-06-14T13:04:45.523Z,48.81
2018-06-14T13:05:45.749Z,48.44
2018-06-14T13:06:45.936Z,49.87
2018-06-14T13:07:46.125Z,51.51
2018-06-14T13:08:46.360Z,50.93
2018-06-14T13:09:46.591Z,50.74
2018-06-14T13:12:18.414Z,49.80
2018-06-14T13:13:18.590Z,49.44
2018-06-14T13:14:18.806Z,49.15
2018-06-14T13:15:19.029Z,49.80
2018-06-14T13:16:19.207Z,49.58
2018-06-14T13:17:19.408Z,49.80
2018-06-14T13:18:19.626Z,49.87
2018-06-14T13:19:19.815Z,49.94
2018-06-14T13:20:20.015Z,50.90
2018-06-14T13:21:20.212Z,50.90
2018-06-14T13:22:20.406Z,51.68
2018-06-14T13:23:20.603Z,51.58
2018-06-14T13:24:20.803Z,51.75
2018-06-14T13:25:21.012Z,53.31
2018-06-14T13:26:21.208Z,53.41
2018-06-14T13:27:21.438Z,52.93
2018-06-14T13:28:21.665Z,52.91
2018-06-14T13:29:21.876Z,53.29
2018-06-14T13:30:22.082Z,53.29
2018-06-14T13:31:22.290Z,53.19
2018-06-14T13:32:22.507Z,53.41